Time;durP1;ratioP1;P1;durP2;ratioP2;P2;SDS_P1;SDS_P2;PMS_P1;PMS_P2;Temp;Humidity;BMP_temperature;BMP_pressure;BME280_temperature;BME280_humidity;BME280_pressure;Samples;Min_cycle;Max_cycle;Signal;HPM_P1;HPM_P2
2022/04/11 00:00:33;;;;;;;8.60;5.70;;;;;;;4.78;90.41;100180.56;6049543;23;20332;-76
2022/04/11 00:03:00;;;;;;;9.27;5.43;;;;;;;4.96;90.60;100198.22;6050366;23;20066;-75
2022/04/11 00:05:25;;;;;;;6.63;4.10;;;;;;;4.96;90.17;100177.41;6028318;23;20037;-76
2022/04/11 00:07:52;;;;;;;9.52;4.25;;;;;;;5.12;90.34;100217.59;6052966;23;20443;-76
2022/04/11 00:10:17;;;;;;;7.30;5.15;;;;;;;5.18;89.81;100215.09;6050649;23;20459;-77
2022/04/11 00:12:43;;;;;;;9.32;5.47;;;;;;;5.02;89.74;100173.19;6050490;23;20625;-76
2022/04/11 00:15:09;;;;;;;14.25;6.75;;;;;;;5.21;88.49;100178.75;6052458;23;20014;-76
2022/04/11 00:17:42;;;;;;;8.07;5.03;;;;;;;5.23;88.09;100190.06;6053316;23;20011;-77
2022/04/11 00:20:09;;;;;;;6.47;4.22;;;;;;;5.11;88.09;100169.03;6050693;23;20030;-76
2022/04/11 00:22:36;;;;;;;6.78;4.10;;;;;;;5.11;87.78;100176.84;6050548;23;20019;-77
2022/04/11 00:25:05;;;;;;;6.28;3.78;;;;;;;5.23;87.84;100167.50;6053275;23;20085;-76
2022/04/11 00:27:30;;;;;;;9.70;5.63;;;;;;;5.02;89.02;100195.72;6053033;23;20064;-76
2022/04/11 00:29:56;;;;;;;11.02;5.93;;;;;;;5.28;88.29;100196.22;6050790;23;20500;-76
2022/04/11 00:32:21;;;;;;;7.38;4.60;;;;;;;5.61;87.76;100234.06;6052784;23;20003;-76
2022/04/11 00:34:47;;;;;;;10.45;5.30;;;;;;;5.42;87.39;100225.06;6027250;23;20030;-76
2022/04/11 00:37:12;;;;;;;10.32;5.30;;;;;;;5.26;86.65;100208.31;6052539;23;20067;-76
2022/04/11 00:39:38;;;;;;;8.23;4.65;;;;;;;5.71;86.77;100264.59;6050986;23;20042;-76
2022/04/11 00:42:12;;;;;;;7.20;4.10;;;;;;;5.38;86.64;100218.94;6054236;23;20066;-76
2022/04/11 00:44:38;;;;;;;6.45;4.28;;;;;;;5.29;86.79;100197.94;6051960;23;20038;-76
2022/04/11 00:47:04;;;;;;;8.40;4.80;;;;;;;5.57;86.87;100234.88;6061179;23;20801;-76
2022/04/11 00:49:29;;;;;;;5.20;3.55;;;;;;;5.72;87.59;100241.22;6051372;23;20015;-76
2022/04/11 00:51:55;;;;;;;8.05;4.50;;;;;;;5.75;87.16;100229.97;6051976;23;20109;-76
2022/04/11 00:54:22;;;;;;;9.00;4.00;;;;;;;5.60;86.49;100207.19;6053613;23;20015;-77
2022/04/11 00:56:48;;;;;;;6.28;3.67;;;;;;;5.59;86.80;100223.63;6053783;23;20040;-78
2022/04/11 00:59:15;;;;;;;5.25;3.20;;;;;;;5.79;86.97;100259.56;6051175;23;20030;-77
2022/04/11 01:01:42;;;;;;;8.00;5.32;;;;;;;5.78;86.62;100268.19;6048404;23;20019;-77
2022/04/11 01:04:23;;;;;;;9.60;4.35;;;;;;;5.87;86.95;100258.81;6051961;23;20025;-77
2022/04/11 01:06:51;;;;;;;5.80;3.90;;;;;;;5.81;86.20;100230.09;6029946;23;20023;-77
2022/04/11 01:09:18;;;;;;;5.32;3.92;;;;;;;5.82;86.27;100236.16;6051937;23;20019;-77
2022/04/11 01:11:43;;;;;;;5.97;3.72;;;;;;;6.04;85.77;100285.19;6053132;23;20153;-77
2022/04/11 01:14:10;;;;;;;6.15;4.38;;;;;;;5.76;86.35;100244.75;6051922;23;20098;-77
2022/04/11 01:16:36;;;;;;;7.65;3.42;;;;;;;5.92;86.06;100266.69;6024954;23;20108;-78
2022/04/11 01:19:03;;;;;;;7.97;3.97;;;;;;;5.86;86.07;100245.78;6052319;23;20046;-77
2022/04/11 01:21:31;;;;;;;5.18;4.13;;;;;;;5.93;86.04;100251.09;6052264;23;20019;-77
2022/04/11 01:23:57;;;;;;;8.68;4.38;;;;;;;6.07;86.67;100277.41;6053001;23;20003;-77
2022/04/11 01:26:27;;;;;;;5.78;3.90;;;;;;;6.01;86.10;100266.00;6051555;23;20098;-77
2022/04/11 01:28:55;;;;;;;4.93;3.45;;;;;;;6.23;86.54;100309.81;6051221;23;20031;-76
2022/04/11 01:31:21;;;;;;;6.72;3.50;;;;;;;5.84;86.71;100256.16;6053000;23;20093;-76
2022/04/11 01:33:46;;;;;;;6.60;4.00;;;;;;;5.88;86.23;100270.13;6052670;23;20019;-76
2022/04/11 01:36:12;;;;;;;8.48;4.85;;;;;;;6.26;86.53;100298.53;6052463;23;20011;-76
2022/04/11 01:38:37;;;;;;;6.28;3.83;;;;;;;6.19;86.23;100268.91;6052839;23;20011;-76
2022/04/11 01:41:04;;;;;;;6.57;4.25;;;;;;;6.55;85.97;100310.28;6051551;23;20023;-76
2022/04/11 01:43:29;;;;;;;6.85;3.80;;;;;;;6.15;85.89;100269.72;6052277;23;20032;-76
2022/04/11 01:45:55;;;;;;;5.50;3.50;;;;;;;5.90;86.32;100289.25;6026415;23;20023;-76
2022/04/11 01:48:22;;;;;;;6.45;4.40;;;;;;;6.00;86.72;100280.78;6052171;23;20188;-76
2022/04/11 01:50:49;;;;;;;7.50;4.03;;;;;;;6.04;87.06;100261.75;6052858;23;20011;-76
2022/04/11 01:53:17;;;;;;;7.30;5.25;;;;;;;6.30;88.26;100321.19;6051428;23;20033;-76
2022/04/11 01:55:44;;;;;;;6.43;3.58;;;;;;;6.41;86.93;100334.38;6051724;23;20069;-76
2022/04/11 01:58:11;;;;;;;10.00;5.32;;;;;;;6.26;84.85;100303.75;6051902;23;20026;-77
2022/04/11 02:00:37;;;;;;;5.68;3.42;;;;;;;6.61;84.83;100353.81;6051237;23;20019;-76
2022/04/11 02:03:08;;;;;;;6.35;3.72;;;;;;;6.58;84.87;100351.16;6053260;23;20283;-77
2022/04/11 02:05:35;;;;;;;6.82;4.30;;;;;;;6.65;85.09;100357.31;6051976;23;20821;-77
2022/04/11 02:08:03;;;;;;;7.20;3.88;;;;;;;6.35;85.21;100332.56;6053226;23;20247;-76
2022/04/11 02:10:28;;;;;;;6.47;4.05;;;;;;;6.44;85.12;100335.31;6052867;23;20026;-76
2022/04/11 02:12:56;;;;;;;6.57;4.60;;;;;;;6.18;84.84;100319.28;6054088;23;20027;-76
2022/04/11 02:15:22;;;;;;;9.38;4.85;;;;;;;6.06;84.48;100321.66;6026594;23;20081;-76
2022/04/11 02:17:50;;;;;;;8.40;5.05;;;;;;;6.19;84.60;100318.41;6054331;23;20015;-76
2022/04/11 02:20:16;;;;;;;6.53;4.50;;;;;;;6.37;84.83;100363.84;6028446;23;20023;-76
2022/04/11 02:22:50;;;;;;;6.60;4.20;;;;;;;6.32;85.01;100335.09;6051227;23;20064;-75
2022/04/11 02:25:17;;;;;;;9.48;4.90;;;;;;;6.08;85.12;100330.38;6053378;23;20435;-76
2022/04/11 02:27:43;;;;;;;7.68;4.13;;;;;;;6.45;84.97;100383.97;6053083;23;20078;-76
2022/04/11 02:30:10;;;;;;;5.47;3.88;;;;;;;6.30;85.45;100379.41;6048833;23;20458;-76
2022/04/11 02:32:37;;;;;;;4.97;3.72;;;;;;;6.43;84.85;100375.25;6053881;23;20534;-76
2022/04/11 02:35:04;;;;;;;6.07;4.05;;;;;;;6.25;84.91;100341.06;6050693;23;20262;-76
2022/04/11 02:37:31;;;;;;;4.93;3.28;;;;;;;6.18;85.95;100352.25;6049646;23;20027;-77
2022/04/11 02:39:57;;;;;;;3.97;2.40;;;;;;;6.05;85.71;100378.09;6052760;23;20026;-76
2022/04/11 02:42:27;;;;;;;5.75;2.33;;;;;;;5.94;86.67;100345.75;6054890;23;20018;-77
2022/04/11 02:44:53;;;;;;;4.40;2.95;;;;;;;6.18;86.54;100381.81;6040895;23;20014;-77
2022/04/11 02:47:20;;;;;;;4.72;2.85;;;;;;;5.90;86.65;100350.03;6031059;23;20018;-76
2022/04/11 02:49:47;;;;;;;3.95;2.00;;;;;;;5.79;87.11;100332.44;6056095;23;20650;-76
2022/04/11 02:52:14;;;;;;;5.07;2.58;;;;;;;5.74;88.10;100341.91;6056580;23;20023;-76
2022/04/11 02:54:41;;;;;;;5.68;3.25;;;;;;;5.95;87.14;100397.00;6057710;23;20031;-76
2022/04/11 02:57:07;;;;;;;4.85;2.53;;;;;;;5.24;87.82;100346.16;6057852;23;20015;-76
2022/04/11 02:59:33;;;;;;;3.40;2.20;;;;;;;5.50;87.96;100357.09;6058233;23;20156;-76
2022/04/11 03:02:01;;;;;;;3.67;1.95;;;;;;;5.99;86.88;100403.13;6056605;23;20063;-76
2022/04/11 03:04:27;;;;;;;7.45;2.08;;;;;;;5.85;86.70;100406.34;6057086;23;20031;-76
2022/04/11 03:06:54;;;;;;;3.45;1.58;;;;;;;5.67;86.94;100403.38;6057470;23;20365;-76
2022/04/11 03:09:20;;;;;;;2.70;1.60;;;;;;;5.63;86.72;100391.16;6028231;23;20100;-76
2022/04/11 03:11:46;;;;;;;3.97;2.75;;;;;;;5.80;86.67;100418.38;6053601;23;20014;-76
2022/04/11 03:14:13;;;;;;;2.10;1.40;;;;;;;5.54;86.19;100362.34;6051236;23;20019;-75
2022/04/11 03:16:40;;;;;;;3.80;1.77;;;;;;;5.50;86.08;100374.41;6051307;23;20102;-76
2022/04/11 03:19:06;;;;;;;4.22;1.60;;;;;;;5.43;86.04;100372.53;6053049;23;20022;-76
2022/04/11 03:21:32;;;;;;;2.90;1.90;;;;;;;5.36;86.08;100373.25;6052977;23;20349;-77
2022/04/11 03:23:57;;;;;;;2.55;1.40;;;;;;;5.28;85.13;100392.19;6051163;23;20011;-76
2022/04/11 03:26:23;;;;;;;2.55;1.30;;;;;;;4.96;85.98;100391.47;6004022;23;20025;-76
2022/04/11 03:28:48;;;;;;;2.55;1.52;;;;;;;5.64;85.43;100422.44;6050830;23;20347;-76
2022/04/11 03:31:14;;;;;;;3.17;1.30;;;;;;;5.47;85.99;100424.66;6052084;23;20033;-77
2022/04/11 03:33:39;;;;;;;2.03;1.13;;;;;;;5.26;85.75;100419.88;6052070;23;20270;-76
2022/04/11 03:36:08;;;;;;;1.65;0.95;;;;;;;5.20;85.58;100392.88;6050554;23;20023;-76
2022/04/11 03:38:33;;;;;;;2.10;0.90;;;;;;;4.88;85.42;100397.38;6051261;23;20034;-77
2022/04/11 03:40:58;;;;;;;1.25;0.80;;;;;;;5.10;85.71;100396.97;6049048;23;20054;-77
2022/04/11 03:43:24;;;;;;;0.93;0.57;;;;;;;5.36;85.45;100426.19;6050996;23;20382;-76
2022/04/11 03:45:51;;;;;;;2.45;1.25;;;;;;;5.38;85.42;100432.28;6053497;23;20022;-75
2022/04/11 03:48:18;;;;;;;1.80;0.90;;;;;;;5.27;84.95;100399.97;6050667;23;20026;-76
2022/04/11 03:50:43;;;;;;;1.70;0.73;;;;;;;5.34;85.23;100421.78;6052745;23;20019;-76
2022/04/11 03:53:09;;;;;;;1.85;1.17;;;;;;;5.20;85.13;100372.94;6051434;23;20810;-77
2022/04/11 03:55:34;;;;;;;1.73;0.93;;;;;;;4.88;85.81;100390.44;6052866;23;20351;-77
2022/04/11 03:58:00;;;;;;;1.40;0.82;;;;;;;4.96;85.24;100390.59;6054670;23;20031;-76
2022/04/11 04:00:26;;;;;;;2.03;1.33;;;;;;;5.18;85.73;100395.44;6051102;23;20019;-76
2022/04/11 04:02:52;;;;;;;2.20;1.10;;;;;;;5.15;85.35;100408.41;6054013;23;20007;-75
2022/04/11 04:05:18;;;;;;;2.50;1.00;;;;;;;5.17;86.01;100417.09;6052780;23;20007;-76
2022/04/11 04:07:43;;;;;;;2.83;1.17;;;;;;;4.96;85.14;100406.22;6054238;23;20526;-77
2022/04/11 04:10:09;;;;;;;3.65;1.58;;;;;;;5.20;85.97;100439.72;6050773;23;20052;-77
2022/04/11 04:12:34;;;;;;;1.85;0.88;;;;;;;4.77;86.85;100410.97;6053273;23;20827;-77
2022/04/11 04:15:02;;;;;;;2.40;1.23;;;;;;;5.16;86.17;100449.16;6052704;23;20352;-77
2022/04/11 04:17:28;;;;;;;3.35;1.58;;;;;;;5.00;86.12;100462.66;6054143;23;20011;-77
2022/04/11 04:19:55;;;;;;;3.08;1.67;;;;;;;4.82;86.28;100413.69;6053103;23;20023;-77
2022/04/11 04:22:22;;;;;;;3.25;1.98;;;;;;;5.17;86.11;100470.84;6048927;23;20022;-76
2022/04/11 04:24:48;;;;;;;7.85;2.80;;;;;;;5.24;85.46;100457.13;6052987;23;20022;-76
2022/04/11 04:27:13;;;;;;;3.97;2.25;;;;;;;5.28;85.92;100462.41;6051659;23;20014;-76
2022/04/11 04:29:39;;;;;;;3.30;1.92;;;;;;;5.19;86.16;100479.56;6051092;23;20030;-76
2022/04/11 04:32:05;;;;;;;4.55;2.53;;;;;;;4.82;86.89;100466.59;6049786;23;20625;-77
2022/04/11 04:34:30;;;;;;;3.42;2.38;;;;;;;4.51;86.65;100448.47;6049466;23;20111;-78
2022/04/11 04:36:58;;;;;;;5.82;2.00;;;;;;;4.69;87.39;100433.34;6052604;23;20034;-81
2022/04/11 04:39:26;;;;;;;3.97;1.70;;;;;;;4.74;86.50;100449.03;6053020;23;20023;-78
2022/04/11 04:41:58;;;;;;;3.58;1.98;;;;;;;4.48;87.05;100440.59;6054223;23;20007;-77
2022/04/11 04:44:24;;;;;;;2.92;2.03;;;;;;;4.43;87.31;100467.34;6027321;23;20439;-77
2022/04/11 04:46:49;;;;;;;3.65;2.20;;;;;;;4.59;87.46;100489.41;6051452;23;20042;-78
2022/04/11 04:49:15;;;;;;;3.65;2.22;;;;;;;4.66;87.98;100480.03;6052349;23;20015;-76
2022/04/11 04:51:40;;;;;;;5.65;2.58;;;;;;;4.96;87.07;100479.88;6051998;23;20023;-77
2022/04/11 04:54:07;;;;;;;8.77;2.58;;;;;;;4.83;86.47;100450.13;6050491;23;20093;-77
2022/04/11 04:56:33;;;;;;;3.78;2.55;;;;;;;4.92;86.91;100451.22;6054060;23;20090;-77
2022/04/11 04:58:59;;;;;;;3.30;1.90;;;;;;;5.19;86.77;100505.56;6052977;23;20019;-77
2022/04/11 05:01:26;;;;;;;4.82;2.17;;;;;;;5.14;86.31;100499.38;6049623;23;20517;-77
2022/04/11 05:03:54;;;;;;;5.13;2.30;;;;;;;4.76;87.26;100474.22;6050678;23;20502;-77
2022/04/11 05:06:22;;;;;;;3.92;2.28;;;;;;;5.31;86.62;100494.56;6049734;23;20019;-77
2022/04/11 05:08:48;;;;;;;6.65;2.05;;;;;;;5.54;86.79;100510.69;6052900;23;20009;-77
2022/04/11 05:11:14;;;;;;;4.78;2.95;;;;;;;5.48;87.00;100506.25;6052312;23;20018;-77
2022/04/11 05:13:40;;;;;;;4.45;2.10;;;;;;;5.39;86.85;100483.50;6054710;23;20061;-77
2022/04/11 05:16:06;;;;;;;3.80;2.05;;;;;;;5.34;85.60;100489.41;6051517;23;20424;-76
2022/04/11 05:18:33;;;;;;;3.13;2.03;;;;;;;5.87;85.18;100487.09;6025889;23;20069;-77
2022/04/11 05:20:59;;;;;;;4.88;2.97;;;;;;;6.57;84.14;100521.47;6052157;23;20007;-77
2022/04/11 05:23:32;;;;;;;6.03;3.03;;;;;;;6.89;82.78;100527.25;6053084;23;20106;-77
2022/04/11 05:25:57;;;;;;;4.45;2.55;;;;;;;6.57;81.55;100498.00;6052139;23;20042;-77
2022/04/11 05:28:23;;;;;;;4.30;2.40;;;;;;;7.11;81.05;100467.56;6055898;23;20029;-77
2022/04/11 05:30:55;;;;;;;4.28;2.20;;;;;;;7.57;79.78;100502.16;6046718;23;20022;-77
2022/04/11 05:33:20;;;;;;;4.57;2.35;;;;;;;7.73;79.05;100491.06;6051695;23;20030;-77
2022/04/11 05:35:47;;;;;;;4.60;2.50;;;;;;;7.66;78.38;100498.81;6053082;23;20221;-77
2022/04/11 05:38:14;;;;;;;4.03;2.20;;;;;;;8.06;76.96;100515.84;6050161;23;20841;-78
2022/04/11 05:40:40;;;;;;;10.60;3.97;;;;;;;7.99;77.83;100529.69;6051597;23;20208;-77
2022/04/11 05:43:07;;;;;;;4.95;2.55;;;;;;;8.09;76.52;100499.31;6052058;23;20034;-77
2022/04/11 05:45:32;;;;;;;4.85;3.08;;;;;;;8.00;77.05;100487.03;6051558;23;20019;-77
2022/04/11 05:47:58;;;;;;;6.13;2.72;;;;;;;8.18;76.36;100488.97;6049447;23;20014;-77
2022/04/11 05:50:25;;;;;;;4.65;2.80;;;;;;;8.32;75.71;100499.59;6053976;23;20045;-77
2022/04/11 05:52:50;;;;;;;6.32;3.35;;;;;;;8.32;75.03;100504.81;6050988;23;20396;-77
2022/04/11 05:55:16;;;;;;;6.25;3.17;;;;;;;8.54;74.45;100532.06;6052279;23;20030;-76
2022/04/11 05:57:43;;;;;;;4.80;3.15;;;;;;;8.23;74.67;100484.66;6052099;23;20034;-77
2022/04/11 06:00:09;;;;;;;4.38;2.83;;;;;;;8.29;74.74;100534.41;6050698;23;20011;-77
2022/04/11 06:02:34;;;;;;;4.88;3.15;;;;;;;8.72;73.75;100541.84;6048049;23;20007;-76
2022/04/11 06:04:59;;;;;;;5.65;3.35;;;;;;;8.81;74.14;100507.94;6052892;23;20026;-77
2022/04/11 06:07:27;;;;;;;2.65;1.95;;;;;;;9.01;74.14;100505.47;6053500;23;20106;-77
2022/04/11 06:09:55;;;;;;;4.15;2.10;;;;;;;9.00;74.25;100520.28;6053614;23;20051;-76
2022/04/11 06:12:25;;;;;;;3.58;2.05;;;;;;;9.23;74.15;100533.56;6045251;23;20011;-76
2022/04/11 06:14:53;;;;;;;4.63;2.88;;;;;;;8.68;74.32;100517.41;6068868;23;20432;-77
2022/04/11 06:17:23;;;;;;;2.97;2.13;;;;;;;9.09;73.46;100519.50;6051609;23;20097;-76
2022/04/11 06:19:50;;;;;;;5.88;2.97;;;;;;;9.08;72.94;100478.47;6052579;23;20026;-76
2022/04/11 06:22:17;;;;;;;3.22;2.17;;;;;;;9.08;74.16;100531.72;6051800;23;20027;-77
2022/04/11 06:24:44;;;;;;;3.53;2.13;;;;;;;8.69;74.60;100498.25;6053696;23;20031;-76
2022/04/11 06:27:10;;;;;;;3.47;1.73;;;;;;;8.59;73.55;100493.75;6050270;23;20015;-76
2022/04/11 06:29:43;;;;;;;5.18;1.80;;;;;;;9.25;72.88;100518.75;6048831;23;20017;-76
2022/04/11 06:32:09;;;;;;;3.83;1.92;;;;;;;9.02;71.01;100520.31;6025812;23;20046;-77
2022/04/11 06:34:37;;;;;;;2.08;1.27;;;;;;;9.08;71.76;100555.28;6049713;23;20459;-76
2022/04/11 06:37:04;;;;;;;2.42;1.40;;;;;;;8.85;72.99;100541.13;6049843;23;20100;-76
2022/04/11 06:39:29;;;;;;;5.45;2.22;;;;;;;8.88;73.44;100517.59;6025905;23;20071;-76
2022/04/11 06:41:55;;;;;;;4.38;2.15;;;;;;;8.89;71.97;100487.94;6052115;23;20022;-77
2022/04/11 06:44:22;;;;;;;7.65;2.15;;;;;;;8.96;71.13;100507.19;6054191;23;20021;-78
2022/04/11 06:46:48;;;;;;;3.33;2.00;;;;;;;9.05;71.53;100542.16;6051848;23;20015;-76
2022/04/11 06:49:14;;;;;;;4.38;2.67;;;;;;;9.00;71.81;100504.59;6051597;23;20022;-76
2022/04/11 06:51:39;;;;;;;3.95;1.75;;;;;;;9.17;71.09;100567.53;6052940;23;20102;-76
2022/04/11 06:54:05;;;;;;;6.15;1.98;;;;;;;8.77;71.84;100532.31;6052681;23;20018;-77
2022/04/11 06:56:32;;;;;;;9.30;2.42;;;;;;;8.73;71.99;100527.91;6053475;23;20011;-77
2022/04/11 06:58:59;;;;;;;3.05;2.13;;;;;;;9.00;73.05;100558.69;6053081;23;20101;-76
2022/04/11 07:01:25;;;;;;;5.38;3.30;;;;;;;9.10;72.77;100536.94;6050955;23;20034;-77
2022/04/11 07:03:52;;;;;;;8.95;3.47;;;;;;;8.79;71.01;100526.22;6052835;23;20019;-76
2022/04/11 07:06:18;;;;;;;5.57;3.33;;;;;;;8.76;72.68;100560.22;6051065;23;20019;-77
2022/04/11 07:08:43;;;;;;;8.32;3.65;;;;;;;8.44;72.86;100545.06;6051780;23;20419;-77
2022/04/11 07:11:09;;;;;;;4.57;2.95;;;;;;;8.65;73.54;100577.53;6053053;23;20033;-77
2022/04/11 07:13:34;;;;;;;4.50;2.92;;;;;;;8.90;72.98;100541.13;6053258;23;20448;-77
2022/04/11 07:16:01;;;;;;;6.82;4.15;;;;;;;8.80;73.60;100538.47;6052932;23;20023;-77
2022/04/11 07:18:27;;;;;;;5.07;2.97;;;;;;;8.75;73.87;100583.72;6051612;23;20027;-78
2022/04/11 07:20:54;;;;;;;6.20;2.72;;;;;;;8.76;73.57;100546.25;6028575;23;20015;-77
2022/04/11 07:23:21;;;;;;;12.43;5.47;;;;;;;8.52;73.51;100555.63;6056158;23;20726;-79
2022/04/11 07:40:58;;;;;;;8.23;4.57;;;;;;;9.35;73.19;100576.44;6135809;22;20795;-76
2022/04/11 07:43:24;;;;;;;6.22;3.65;;;;;;;9.44;72.71;100590.47;6200743;23;20016;-75
2022/04/11 07:45:49;;;;;;;6.65;3.72;;;;;;;9.75;71.90;100590.66;6200734;23;20705;-75
2022/04/11 07:48:15;;;;;;;8.27;5.15;;;;;;;9.61;71.00;100581.84;6101765;23;20021;-76
2022/04/11 07:50:40;;;;;;;5.15;3.65;;;;;;;9.75;70.24;100595.91;6082853;23;20498;-76
2022/04/11 07:53:06;;;;;;;5.68;3.70;;;;;;;9.81;70.63;100574.09;6081032;23;20106;-77
2022/04/11 07:55:33;;;;;;;5.00;3.50;;;;;;;9.87;69.40;100550.56;6166335;23;20115;-76
2022/04/11 07:57:59;;;;;;;10.63;3.53;;;;;;;10.33;68.89;100600.63;6099446;23;20034;-77
2022/04/11 08:00:25;;;;;;;4.95;3.50;;;;;;;10.14;70.09;100594.38;6078132;23;20033;-77
2022/04/11 08:02:53;;;;;;;4.20;2.92;;;;;;;9.83;68.18;100557.53;6082843;23;20011;-76
2022/04/11 08:05:19;;;;;;;6.60;3.75;;;;;;;9.96;67.98;100574.19;6082694;23;20452;-76
2022/04/11 08:07:49;;;;;;;5.20;3.10;;;;;;;10.05;68.16;100602.22;6082299;23;20474;-77
2022/04/11 08:10:16;;;;;;;7.88;4.35;;;;;;;9.80;68.72;100561.88;6081836;23;20018;-78
2022/04/11 08:12:57;;;;;;;7.03;4.28;;;;;;;10.06;67.36;100591.72;6181751;23;20027;-78
2022/04/11 08:15:25;;;;;;;7.70;5.03;;;;;;;9.89;68.31;100564.53;6182222;23;20089;-77
2022/04/11 08:17:58;;;;;;;5.95;3.45;;;;;;;9.94;63.87;100576.78;6181863;23;20380;-77
2022/04/11 08:20:26;;;;;;;6.45;2.63;;;;;;;9.96;65.72;100566.31;6081916;23;20014;-77
2022/04/11 08:22:53;;;;;;;7.05;3.90;;;;;;;10.43;63.24;100602.41;6182087;23;20052;-76
2022/04/11 08:25:19;;;;;;;3.55;2.05;;;;;;;10.20;55.90;100578.66;6180907;23;20019;-78
2022/04/11 08:27:45;;;;;;;4.88;2.70;;;;;;;10.32;56.97;100555.16;6181296;23;20023;-80
2022/04/11 08:30:12;;;;;;;8.15;3.33;;;;;;;10.70;57.11;100569.22;6182963;23;20582;-72
2022/04/11 08:32:47;;;;;;;11.35;5.25;;;;;;;11.14;58.86;100600.81;6083486;23;20006;-78
2022/04/11 08:35:13;;;;;;;16.00;7.85;;;;;;;10.94;59.10;100584.16;6081098;23;20027;-71
2022/04/11 08:37:40;;;;;;;8.55;3.90;;;;;;;10.65;60.99;100577.13;6079248;23;20394;-69
2022/04/11 08:40:16;;;;;;;9.88;3.72;;;;;;;10.44;60.91;100604.16;6159189;23;20059;-70
2022/04/11 08:42:44;;;;;;;6.07;3.55;;;;;;;10.53;60.09;100609.41;6080260;23;20022;-69
2022/04/11 08:45:13;;;;;;;7.13;3.90;;;;;;;10.22;60.71;100597.03;6079569;23;20427;-69
2022/04/11 08:47:39;;;;;;;8.98;4.13;;;;;;;10.20;63.89;100594.41;6080751;23;20382;-69
2022/04/11 08:50:07;;;;;;;6.53;4.00;;;;;;;9.86;66.50;100623.06;6077817;23;20145;-69
2022/04/11 08:52:35;;;;;;;7.30;4.28;;;;;;;9.60;68.82;100593.16;6077680;23;20464;-71
2022/04/11 08:55:02;;;;;;;6.90;4.07;;;;;;;8.83;69.21;100600.41;6079346;23;20101;-71
2022/04/11 08:57:28;;;;;;;12.13;4.68;;;;;;;9.10;69.87;100581.44;6079178;23;20025;-70
2022/04/11 08:59:53;;;;;;;7.47;4.25;;;;;;;9.16;70.83;100593.72;6080674;23;20006;-71
2022/04/11 09:02:29;;;;;;;5.35;3.65;;;;;;;9.43;70.34;100583.44;6076405;23;20438;-71
2022/04/11 09:04:56;;;;;;;6.63;3.90;;;;;;;9.77;69.44;100598.56;6079658;23;20164;-70
2022/04/11 09:07:23;;;;;;;5.13;3.55;;;;;;;9.75;69.40;100576.69;6079240;23;20023;-71
2022/04/11 09:09:49;;;;;;;9.82;5.05;;;;;;;9.73;69.92;100579.28;6077459;23;20022;-71
2022/04/11 09:12:17;;;;;;;10.57;5.03;;;;;;;9.86;72.10;100586.38;6079288;23;20015;-70
2022/04/11 09:14:43;;;;;;;8.60;5.20;;;;;;;10.24;71.39;100625.00;6080987;23;20022;-72
2022/04/11 09:17:10;;;;;;;8.15;5.65;;;;;;;10.25;70.96;100628.50;6078543;23;20026;-71
2022/04/11 09:19:36;;;;;;;8.70;6.30;;;;;;;9.77;73.10;100598.56;6080404;23;20079;-71
2022/04/11 09:22:03;;;;;;;4.95;3.42;;;;;;;9.85;70.25;100634.41;6078602;23;20691;-71
2022/04/11 09:24:30;;;;;;;7.60;3.38;;;;;;;9.38;69.64;100605.25;6080539;23;20030;-70
2022/04/11 09:26:57;;;;;;;9.88;4.57;;;;;;;9.36;70.89;100599.13;6079953;23;20097;-71
2022/04/11 09:29:23;;;;;;;5.78;4.03;;;;;;;9.23;67.94;100614.72;6082572;23;20013;-71
2022/04/11 09:31:50;;;;;;;10.55;4.47;;;;;;;9.69;69.69;100643.03;6081311;23;20033;-71
2022/04/11 09:34:20;;;;;;;5.55;3.40;;;;;;;9.50;72.96;100603.63;6079379;23;20033;-71
2022/04/11 09:36:51;;;;;;;7.75;4.57;;;;;;;9.86;72.39;100628.31;6078594;23;20098;-71
2022/04/11 09:39:53;;;;;;;14.90;5.40;;;;;;;9.68;72.98;100597.59;6080880;23;20111;-71
2022/04/11 09:42:29;;;;;;;6.30;4.00;;;;;;;9.85;72.99;100620.44;6084878;23;20458;-69
2022/04/11 09:44:59;;;;;;;6.60;4.80;;;;;;;9.69;72.48;100599.38;6080005;23;20006;-71
2022/04/11 09:47:25;;;;;;;10.30;5.22;;;;;;;9.70;74.30;100595.00;6081837;23;20003;-70
2022/04/11 09:49:50;;;;;;;7.32;4.72;;;;;;;9.54;72.91;100590.53;6079262;23;20355;-70
2022/04/11 09:52:16;;;;;;;6.50;4.90;;;;;;;9.52;70.17;100614.09;6079231;23;20042;-69
2022/04/11 09:54:46;;;;;;;9.93;5.95;;;;;;;9.67;70.96;100627.31;6080832;23;20026;-71
2022/04/11 09:57:14;;;;;;;11.80;5.70;;;;;;;10.04;67.59;100658.09;6081323;23;20029;-70
2022/04/11 09:59:41;;;;;;;7.82;4.60;;;;;;;10.04;71.61;100645.00;6081149;23;20021;-71
2022/04/11 10:02:11;;;;;;;7.13;4.22;;;;;;;9.97;69.10;100611.75;6075250;23;20030;-71
2022/04/11 10:04:39;;;;;;;6.68;4.13;;;;;;;10.08;67.36;100646.78;6080683;23;20026;-70
2022/04/11 10:07:09;;;;;;;4.72;3.05;;;;;;;9.95;65.91;100611.78;6080696;23;20452;-71
2022/04/11 10:09:38;;;;;;;8.43;4.47;;;;;;;10.23;66.10;100651.22;6078967;23;20497;-70
2022/04/11 10:12:04;;;;;;;5.68;3.05;;;;;;;10.19;61.06;100659.97;6079046;23;20447;-70
2022/04/11 10:14:31;;;;;;;8.60;3.83;;;;;;;10.28;63.76;100665.25;6081043;23;20039;-70
2022/04/11 10:17:00;;;;;;;7.10;3.38;;;;;;;10.38;62.12;100664.47;6079879;23;20034;-71
2022/04/11 10:19:31;;;;;;;5.88;3.00;;;;;;;10.30;61.89;100617.22;6080169;23;20453;-70
2022/04/11 10:22:04;;;;;;;7.57;3.53;;;;;;;10.55;59.77;100656.66;6079805;23;20113;-71
2022/04/11 10:24:45;;;;;;;11.40;4.38;;;;;;;10.62;55.47;100663.69;6080446;23;20447;-70
2022/04/11 10:27:29;;;;;;;5.53;2.70;;;;;;;10.30;53.49;100660.91;6081439;23;20092;-72
2022/04/11 10:29:56;;;;;;;8.02;3.25;;;;;;;10.09;53.37;100625.81;6070133;23;20034;-71
2022/04/11 10:32:27;;;;;;;7.88;3.80;;;;;;;10.66;53.75;100669.84;6082214;23;20550;-71
2022/04/11 10:34:52;;;;;;;6.95;3.25;;;;;;;10.24;52.18;100632.00;6081449;23;20026;-70
2022/04/11 10:37:20;;;;;;;5.72;3.30;;;;;;;10.70;52.82;100637.44;6080439;23;20019;-70
2022/04/11 10:39:46;;;;;;;10.13;5.38;;;;;;;10.69;48.43;100640.97;6070445;22;20063;-70
2022/04/11 10:42:17;;;;;;;5.88;2.97;;;;;;;10.95;49.50;100635.78;6188719;23;20405;-70
2022/04/11 10:44:53;;;;;;;5.68;2.75;;;;;;;10.83;49.47;100669.88;6259816;22;20001;-71
2022/04/11 10:47:26;;;;;;;4.88;2.78;;;;;;;10.85;46.85;100676.03;6209388;23;20101;-69
2022/04/11 10:49:53;;;;;;;4.07;2.42;;;;;;;10.72;50.37;100655.00;6257750;22;20020;-70
2022/04/11 10:52:28;;;;;;;15.23;7.63;;;;;;;11.18;50.10;100659.47;6234830;23;20044;-70
2022/04/11 10:55:08;;;;;;;5.53;3.05;;;;;;;10.76;48.25;100635.72;6235028;23;20016;-70
2022/04/11 10:57:41;;;;;;;7.07;2.70;;;;;;;10.56;46.80;100638.31;6235205;23;20099;-70
2022/04/11 11:00:12;;;;;;;7.22;2.65;;;;;;;10.93;47.04;100627.91;6207447;23;20015;-70
2022/04/11 11:02:57;;;;;;;6.35;3.22;;;;;;;10.81;47.88;100669.88;6235462;23;20004;-71
2022/04/11 11:05:31;;;;;;;5.97;2.88;;;;;;;10.65;44.37;100636.56;6233430;23;20016;-71
2022/04/11 11:08:13;;;;;;;13.43;6.95;;;;;;;11.01;45.55;100627.94;6234235;23;20023;-70
2022/04/11 11:10:45;;;;;;;14.55;7.90;;;;;;;11.32;47.55;100627.94;6234603;23;20026;-70
2022/04/11 11:13:40;;;;;;;8.60;3.88;;;;;;;11.24;47.12;100635.84;6234737;23;20030;-70
2022/04/11 11:16:11;;;;;;;7.93;3.40;;;;;;;11.28;46.55;100666.47;6247721;22;20016;-70
2022/04/11 11:18:46;;;;;;;8.52;3.85;;;;;;;11.46;49.81;100662.13;6234804;23;20016;-70
2022/04/11 11:21:16;;;;;;;12.10;5.57;;;;;;;11.43;48.60;100643.72;6207511;23;20095;-71
2022/04/11 11:24:10;;;;;;;5.13;3.20;;;;;;;11.28;48.67;100616.56;6235341;23;20008;-72
2022/04/11 11:26:45;;;;;;;;;;;;;;;11.01;46.64;100655.94;6234514;23;20019;-69
2022/04/11 11:29:43;;;;;;;16.33;9.38;;;;;;;11.08;44.10;100653.31;6234132;23;19915;-69
2022/04/11 11:32:12;;;;;;;10.65;4.82;;;;;;;11.25;44.42;100645.47;6226128;23;20150;-70
2022/04/11 11:34:38;;;;;;;7.45;3.95;;;;;;;10.99;43.04;100645.41;6233833;23;20020;-71
2022/04/11 11:37:07;;;;;;;11.88;6.05;;;;;;;11.02;42.93;100645.41;6232864;23;20044;-70
2022/04/11 11:39:37;;;;;;;7.97;4.10;;;;;;;11.54;45.24;100642.84;6233600;23;20095;-71
2022/04/11 11:42:14;;;;;;;7.88;4.28;;;;;;;11.68;44.87;100640.19;6118662;23;20053;-72
2022/04/11 11:44:47;;;;;;;8.25;4.00;;;;;;;11.67;42.43;100661.25;6081687;23;20112;-72
2022/04/11 11:47:12;;;;;;;9.00;3.75;;;;;;;11.87;45.94;100655.94;6080978;23;20115;-73
2022/04/11 11:49:47;;;;;;;5.78;3.40;;;;;;;11.57;46.73;100623.56;6080488;23;20022;-72